createdAt,value
2023-05-14T00:01:19.516Z,100895.94
2023-05-14T00:06:22.236Z,100890.09
2023-05-14T00:11:24.937Z,100891.41
2023-05-14T00:16:27.671Z,100896.23
2023-05-14T00:21:31.690Z,100905.16
2023-05-14T00:26:34.416Z,100903.95
2023-05-14T00:31:37.981Z,100905.45
2023-05-14T00:36:41.155Z,100904.11
2023-05-14T00:41:43.887Z,100898.86
2023-05-14T00:46:46.926Z,100898.89
2023-05-14T00:51:49.897Z,100897.64
2023-05-14T00:56:54.101Z,100895.45
2023-05-14T01:01:57.129Z,100889.27
2023-05-14T01:07:21.798Z,100887.21
2023-05-14T01:12:45.928Z,100892.26
2023-05-14T01:17:58.927Z,100891.09
2023-05-14T01:23:02.411Z,100886.93
2023-05-14T01:28:20.387Z,100883.83
2023-05-14T01:33:26.133Z,100883.06
2023-05-14T01:38:32.145Z,100880.04
2023-05-14T01:43:35.590Z,100882.23
2023-05-14T01:48:38.352Z,100884.20
2023-05-14T01:53:41.440Z,100881.93
2023-05-14T01:58:44.199Z,100883.15
2023-05-14T02:03:46.969Z,100882.58
2023-05-14T02:08:49.740Z,100881.79
2023-05-14T02:13:52.541Z,100880.73
2023-05-14T02:18:55.401Z,100877.90
2023-05-14T02:23:58.190Z,100877.98
2023-05-14T02:29:01.053Z,100877.56
2023-05-14T02:34:06.522Z,100876.32
2023-05-14T02:39:09.907Z,100875.58
2023-05-14T02:44:13.439Z,100878.94
2023-05-14T02:49:16.248Z,100879.21
2023-05-14T02:54:18.959Z,100877.16
2023-05-14T02:59:21.865Z,100872.23
2023-05-14T03:04:25.130Z,100869.93
2023-05-14T03:09:27.969Z,100865.83
2023-05-14T03:14:30.830Z,100864.73
2023-05-14T03:19:33.575Z,100859.32
2023-05-14T03:24:39.256Z,100855.87
2023-05-14T03:29:41.979Z,100854.63
2023-05-14T03:34:44.993Z,100852.33
2023-05-14T03:39:47.735Z,100852.07
2023-05-14T03:44:51.499Z,100849.66
2023-05-14T03:49:54.980Z,100847.15
2023-05-14T03:54:57.794Z,100845.81
2023-05-14T04:00:00.771Z,100849.33
2023-05-14T04:05:04.356Z,100847.84
2023-05-14T04:10:08.218Z,100844.19
2023-05-14T04:15:11.751Z,100844.09
2023-05-14T04:20:14.567Z,100844.02
2023-05-14T04:25:18.570Z,100841.64
2023-05-14T04:30:22.016Z,100845.16
2023-05-14T04:35:25.287Z,100849.80
2023-05-14T04:40:28.122Z,100847.91
2023-05-14T04:45:34.240Z,100839.33
2023-05-14T04:50:37.235Z,100836.98
2023-05-14T04:55:40.731Z,100831.93
2023-05-14T05:00:43.905Z,100830.48
2023-05-14T05:05:46.608Z,100825.04
2023-05-14T05:10:49.341Z,100825.84
2023-05-14T05:15:52.072Z,100831.39
2023-05-14T05:20:55.055Z,100828.34
2023-05-14T05:25:57.774Z,100832.20
2023-05-14T05:31:00.792Z,100822.57
2023-05-14T05:36:03.781Z,100822.76
2023-05-14T05:41:06.629Z,100826.29
2023-05-14T05:46:09.389Z,100821.08
2023-05-14T05:51:12.889Z,100824.38
2023-05-14T05:56:15.886Z,100827.06
2023-05-14T06:01:18.781Z,100829.14
2023-05-14T06:06:22.013Z,100827.76
2023-05-14T06:11:25.118Z,100824.32
2023-05-14T06:16:27.994Z,100824.60
2023-05-14T06:21:30.963Z,100821.70
2023-05-14T06:26:33.764Z,100823.92
2023-05-14T06:31:36.502Z,100824.14
2023-05-14T06:36:39.224Z,100820.12
2023-05-14T06:41:42.064Z,100813.76
2023-05-14T06:46:44.828Z,100814.42
2023-05-14T06:51:47.577Z,100812.54
2023-05-14T06:56:50.486Z,100812.21
2023-05-14T07:01:53.708Z,100813.02
2023-05-14T07:06:56.468Z,100810.70
2023-05-14T07:11:59.247Z,100803.83
2023-05-14T07:17:02.031Z,100805.39
2023-05-14T07:22:04.916Z,100801.30
2023-05-14T07:27:08.723Z,100801.16
2023-05-14T07:32:13.299Z,100800.91
2023-05-14T07:37:17.546Z,100793.73
2023-05-14T07:42:34.537Z,100789.36
2023-05-14T07:47:39.699Z,100788.84
2023-05-14T07:52:42.425Z,100783.40
2023-05-14T07:57:46.171Z,100781.88
2023-05-14T08:02:49.398Z,100778.80
2023-05-14T08:07:52.900Z,100772.66
2023-05-14T08:12:55.847Z,100775.85
2023-05-14T08:18:03.393Z,100771.40
2023-05-14T08:23:07.556Z,100769.67
2023-05-14T08:28:10.360Z,100762.73
2023-05-14T08:33:13.335Z,100760.75
2023-05-14T08:38:16.068Z,100754.86
2023-05-14T08:43:24.817Z,100754.12
2023-05-14T08:48:32.970Z,100750.30
2023-05-14T08:53:36.037Z,100747.98
2023-05-14T08:58:38.858Z,100739.83
2023-05-14T09:03:42.690Z,100732.27
2023-05-14T09:08:46.964Z,100732.94
2023-05-14T09:13:49.662Z,100732.34
2023-05-14T09:18:52.476Z,100718.69
2023-05-14T09:23:57.472Z,100718.79
2023-05-14T09:29:02.138Z,100717.64
2023-05-14T09:34:04.835Z,100714.34
2023-05-14T09:39:08.015Z,100708.78
2023-05-14T09:44:11.268Z,100696.09
2023-05-14T09:49:14.296Z,100691.67
2023-05-14T09:54:17.623Z,100688.15
2023-05-14T09:59:20.909Z,100681.74
2023-05-14T10:04:24.784Z,100684.73
2023-05-14T10:09:30.365Z,100681.05
2023-05-14T10:14:38.968Z,100669.89
2023-05-14T10:19:42.053Z,100662.25
2023-05-14T10:24:47.496Z,100655.38
2023-05-14T10:29:54.878Z,100647.27
2023-05-14T10:34:58.617Z,100643.16
2023-05-14T10:40:06.359Z,100639.31
2023-05-14T10:45:14.441Z,100629.07
2023-05-14T10:50:17.828Z,100633.21
2023-05-14T10:55:21.887Z,100615.31
2023-05-14T11:00:27.966Z,100605.36
2023-05-14T11:05:31.999Z,100605.46
2023-05-14T11:10:35.657Z,100600.48
2023-05-14T11:15:40.741Z,100590.78
2023-05-14T11:20:43.582Z,100590.85
2023-05-14T11:25:46.419Z,100586.77
2023-05-14T11:30:50.747Z,100571.05
2023-05-14T11:35:53.602Z,100564.73
2023-05-14T11:40:59.294Z,100560.75
2023-05-14T11:46:02.046Z,100557.69
2023-05-14T11:51:04.999Z,100559.52
2023-05-14T11:56:09.642Z,100556.77
2023-05-14T12:01:14.013Z,100542.74
2023-05-14T12:06:19.196Z,100535.39
2023-05-14T12:11:21.965Z,100535.42
2023-05-14T12:16:31.214Z,100525.02
2023-05-14T12:21:34.851Z,100516.45
2023-05-14T12:26:39.049Z,100507.15
2023-05-14T12:31:49.882Z,100500.11
2023-05-14T12:36:52.748Z,100498.74
2023-05-14T12:41:55.528Z,100494.45
2023-05-14T12:46:58.300Z,100485.98
2023-05-14T12:52:17.384Z,100478.66
2023-05-14T12:57:23.730Z,100503.28
2023-05-14T13:02:26.536Z,100505.41
2023-05-14T13:07:30.239Z,100477.34
2023-05-14T13:12:33.123Z,100468.79
2023-05-14T13:17:36.350Z,100458.92
2023-05-14T13:22:39.461Z,100446.08
2023-05-14T13:27:42.161Z,100439.21
2023-05-14T13:32:45.490Z,100432.33
2023-05-14T13:37:48.713Z,100432.80
2023-05-14T13:42:51.449Z,100422.33
2023-05-14T13:47:56.782Z,100416.40
2023-05-14T13:52:59.650Z,100411.29
2023-05-14T13:58:02.547Z,100405.27
2023-05-14T14:03:05.815Z,100400.45
2023-05-14T14:08:22.482Z,100397.46
2023-05-14T14:13:27.967Z,100387.29
2023-05-14T14:18:30.981Z,100376.21
2023-05-14T14:23:33.774Z,100368.83
2023-05-14T14:28:37.070Z,100365.09
2023-05-14T14:33:39.887Z,100367.06
2023-05-14T14:38:42.702Z,100357.40
2023-05-14T14:43:45.497Z,100349.53
2023-05-14T14:48:48.294Z,100350.89
2023-05-14T14:53:51.062Z,100344.41
2023-05-14T14:58:53.795Z,100343.86
2023-05-14T15:03:56.529Z,100339.49
2023-05-14T15:08:59.713Z,100335.98
2023-05-14T15:14:02.604Z,100321.75
2023-05-14T15:19:05.965Z,100313.33
2023-05-14T15:24:15.504Z,100308.05
2023-05-14T15:29:18.822Z,100302.20
2023-05-14T15:34:21.838Z,100308.13
2023-05-14T15:39:24.650Z,100308.79
2023-05-14T15:44:27.374Z,100302.54
2023-05-14T15:49:30.068Z,100305.02
2023-05-14T15:54:32.814Z,100301.60
2023-05-14T15:59:35.524Z,100297.19
2023-05-14T16:04:38.309Z,100290.91
2023-05-14T16:09:41.119Z,100287.02
2023-05-14T16:14:45.456Z,100284.53
2023-05-14T16:19:48.460Z,100282.67
2023-05-14T16:24:51.240Z,100272.61
2023-05-14T16:29:54.668Z,100267.38
2023-05-14T16:34:57.484Z,100266.70
2023-05-14T16:40:00.197Z,100263.67
2023-05-14T16:45:02.937Z,100254.61
2023-05-14T16:50:08.222Z,100250.80
2023-05-14T16:55:11.077Z,100248.42
2023-05-14T17:00:15.335Z,100247.77
2023-05-14T17:05:18.480Z,100248.71
2023-05-14T17:10:21.623Z,100246.75
2023-05-14T17:15:24.610Z,100244.16
2023-05-14T17:20:28.725Z,100248.58
2023-05-14T17:25:34.186Z,100246.38
2023-05-14T17:30:36.907Z,100243.60
2023-05-14T17:35:40.302Z,100247.88
2023-05-14T17:40:43.032Z,100248.33
2023-05-14T17:45:53.884Z,100250.19
2023-05-14T17:50:57.829Z,100246.20
2023-05-14T17:56:00.558Z,100244.48
2023-05-14T18:01:03.587Z,100238.45
2023-05-14T18:06:06.608Z,100238.98
2023-05-14T18:11:09.460Z,100246.09
2023-05-14T18:16:12.304Z,100250.66
2023-05-14T18:21:15.051Z,100255.81
2023-05-14T18:26:18.170Z,100251.22
2023-05-14T18:31:21.006Z,100248.14
2023-05-14T18:36:23.880Z,100250.96
2023-05-14T18:41:26.632Z,100251.73
2023-05-14T18:46:29.599Z,100250.72
2023-05-14T18:51:32.435Z,100253.23
2023-05-14T18:56:36.932Z,100255.98
2023-05-14T19:01:39.765Z,100256.77
2023-05-14T19:06:42.940Z,100259.41
2023-05-14T19:11:45.754Z,100259.31
2023-05-14T19:16:48.851Z,100261.39
2023-05-14T19:21:51.718Z,100254.50
2023-05-14T19:26:54.628Z,100248.66
2023-05-14T19:31:57.603Z,100246.98
2023-05-14T19:37:00.688Z,100249.66
2023-05-14T19:42:03.544Z,100248.27
2023-05-14T19:47:07.143Z,100248.55
2023-05-14T19:52:11.526Z,100246.55
2023-05-14T19:57:14.334Z,100239.84
2023-05-14T20:02:18.703Z,100239.22
2023-05-14T20:07:21.573Z,100240.35
2023-05-14T20:12:24.379Z,100234.27
2023-05-14T20:17:27.181Z,100236.13
2023-05-14T20:22:30.093Z,100232.71
2023-05-14T20:27:32.941Z,100229.20
2023-05-14T20:32:35.852Z,100231.20
2023-05-14T20:37:39.157Z,100226.77
2023-05-14T20:42:42.009Z,100223.40
2023-05-14T20:47:45.861Z,100226.03
2023-05-14T20:52:48.741Z,100224.58
2023-05-14T20:57:51.951Z,100221.02
2023-05-14T21:02:54.751Z,100213.86
2023-05-14T21:07:57.656Z,100205.73
2023-05-14T21:13:00.474Z,100200.82
2023-05-14T21:18:03.287Z,100203.02
2023-05-14T21:23:06.118Z,100207.51
2023-05-14T21:28:08.870Z,100202.91
2023-05-14T21:33:11.578Z,100195.69
2023-05-14T21:38:15.014Z,100190.60
2023-05-14T21:43:17.748Z,100186.65
2023-05-14T21:48:21.750Z,100185.91
2023-05-14T21:53:24.733Z,100185.27
2023-05-14T21:58:28.528Z,100180.60
2023-05-14T22:03:31.489Z,100174.02
2023-05-14T22:08:34.256Z,100171.16
2023-05-14T22:13:40.953Z,100164.59
2023-05-14T22:18:44.210Z,100162.43
2023-05-14T22:23:47.158Z,100162.58
2023-05-14T22:28:49.972Z,100161.54
2023-05-14T22:33:53.269Z,100151.99
2023-05-14T22:38:56.387Z,100150.02
2023-05-14T22:43:59.188Z,100141.81
2023-05-14T22:49:01.864Z,100137.58
2023-05-14T22:54:04.791Z,100136.86
2023-05-14T22:59:07.601Z,100132.23
2023-05-14T23:04:10.419Z,100126.26
2023-05-14T23:09:13.295Z,100118.23
2023-05-14T23:14:17.904Z,100111.59
2023-05-14T23:19:21.876Z,100109.58
2023-05-14T23:24:25.080Z,100104.84
2023-05-14T23:29:27.983Z,100097.13
2023-05-14T23:34:31.097Z,100086.28
2023-05-14T23:39:34.392Z,100080.10
2023-05-14T23:44:37.103Z,100072.92
2023-05-14T23:49:40.864Z,100065.03
2023-05-14T23:54:43.559Z,100055.51
2023-05-14T23:59:46.255Z,100044.05
